createdAt,value
2022-11-12T00:00:56.368Z,4.99
2022-11-12T00:03:22.840Z,4.97
2022-11-12T00:05:50.599Z,4.99
2022-11-12T00:08:17.661Z,4.97
2022-11-12T00:10:45.011Z,4.77
2022-11-12T00:13:11.790Z,4.72
2022-11-12T00:15:38.254Z,4.70
2022-11-12T00:18:04.854Z,4.36
2022-11-12T00:20:31.388Z,4.54
2022-11-12T00:22:57.788Z,4.51
2022-11-12T00:25:24.417Z,4.55
2022-11-12T00:27:50.848Z,4.54
2022-11-12T00:30:17.281Z,4.60
2022-11-12T00:32:43.754Z,4.65
2022-11-12T00:35:13.671Z,4.61
2022-11-12T00:37:40.938Z,4.54
2022-11-12T00:40:08.447Z,4.57
2022-11-12T00:42:34.870Z,4.64
2022-11-12T00:45:01.349Z,4.55
2022-11-12T00:47:27.785Z,4.40
2022-11-12T00:49:54.209Z,4.45
2022-11-12T00:52:20.621Z,4.41
2022-11-12T00:54:47.046Z,4.21
2022-11-12T00:57:13.458Z,4.09
2022-11-12T00:59:39.900Z,4.03
2022-11-12T01:02:06.360Z,4.14
2022-11-12T01:04:33.169Z,4.04
2022-11-12T01:06:59.668Z,4.23
2022-11-12T01:09:26.404Z,4.25
2022-11-12T01:11:52.851Z,4.06
2022-11-12T01:14:19.280Z,4.19
2022-11-12T01:16:45.722Z,4.20
2022-11-12T01:19:13.608Z,4.26
2022-11-12T01:21:42.500Z,4.21
2022-11-12T01:24:10.000Z,4.06
2022-11-12T01:26:37.355Z,4.15
2022-11-12T01:29:04.591Z,4.09
2022-11-12T01:31:34.202Z,4.09
2022-11-12T01:34:04.862Z,4.13
2022-11-12T01:36:34.254Z,3.87
2022-11-12T01:39:00.987Z,3.93
2022-11-12T01:41:30.622Z,3.94
2022-11-12T01:44:30.162Z,3.92
2022-11-12T01:47:19.174Z,4.06
2022-11-12T01:50:19.292Z,4.02
2022-11-12T01:53:00.437Z,4.00
2022-11-12T01:55:31.771Z,3.81
2022-11-12T01:58:06.684Z,3.84
2022-11-12T02:00:33.114Z,4.00
2022-11-12T02:03:02.090Z,3.89
2022-11-12T02:05:30.834Z,3.85
2022-11-12T02:08:00.485Z,3.90
2022-11-12T02:10:27.790Z,3.93
2022-11-12T02:13:13.368Z,3.96
2022-11-12T02:15:41.079Z,3.47
2022-11-12T02:18:08.051Z,3.67
2022-11-12T02:20:36.384Z,3.69
2022-11-12T02:23:03.909Z,3.60
2022-11-12T02:25:30.588Z,3.63
2022-11-12T02:27:58.784Z,3.61
2022-11-12T02:30:51.539Z,3.79
2022-11-12T02:33:17.966Z,3.50
2022-11-12T02:35:44.375Z,3.72
2022-11-12T02:38:11.197Z,3.59
2022-11-12T02:40:37.735Z,3.42
2022-11-12T02:43:04.204Z,3.70
2022-11-12T02:45:32.022Z,3.65
2022-11-12T02:47:58.579Z,3.41
2022-11-12T02:50:25.024Z,3.22
2022-11-12T02:52:51.465Z,3.54
2022-11-12T02:55:18.044Z,3.65
2022-11-12T02:57:44.505Z,3.56
2022-11-12T03:00:13.113Z,3.70
2022-11-12T03:02:42.574Z,3.62
2022-11-12T03:05:12.148Z,3.61
2022-11-12T03:07:39.189Z,3.46
2022-11-12T03:10:06.506Z,3.50
2022-11-12T03:12:33.282Z,3.60
2022-11-12T03:14:59.724Z,3.60
2022-11-12T03:17:26.141Z,3.64
2022-11-12T03:19:52.516Z,3.62
2022-11-12T03:22:18.926Z,3.63
2022-11-12T03:24:45.377Z,3.65
2022-11-12T03:27:11.803Z,3.67
2022-11-12T03:29:38.242Z,3.65
2022-11-12T03:32:04.807Z,3.55
2022-11-12T03:34:31.180Z,3.52
2022-11-12T03:36:57.556Z,3.51
2022-11-12T03:39:23.990Z,3.41
2022-11-12T03:41:50.372Z,3.31
2022-11-12T03:44:16.769Z,3.08
2022-11-12T03:46:44.525Z,3.35
2022-11-12T03:49:11.123Z,3.55
2022-11-12T03:51:37.496Z,3.56
2022-11-12T03:54:04.148Z,3.35
2022-11-12T03:56:30.574Z,3.28
2022-11-12T03:58:56.964Z,3.45
2022-11-12T04:01:23.427Z,3.57
2022-11-12T04:03:49.936Z,3.47
2022-11-12T04:06:34.938Z,3.17
2022-11-12T04:09:01.423Z,3.37
2022-11-12T04:11:27.889Z,3.27
2022-11-12T04:13:54.313Z,3.05
2022-11-12T04:16:41.051Z,3.15
2022-11-12T04:19:30.551Z,3.39
2022-11-12T04:22:09.007Z,3.47
2022-11-12T04:25:01.473Z,3.35
2022-11-12T04:27:33.380Z,3.42
2022-11-12T04:30:19.372Z,3.47
2022-11-12T04:32:52.809Z,3.57
2022-11-12T04:35:19.244Z,3.55
2022-11-12T04:37:45.942Z,3.65
2022-11-12T04:40:35.257Z,3.79
2022-11-12T04:43:21.899Z,3.76
2022-11-12T04:45:51.207Z,4.01
2022-11-12T04:48:18.578Z,4.10
2022-11-12T04:51:31.085Z,4.24
2022-11-12T04:53:57.519Z,4.34
2022-11-12T04:56:23.985Z,4.41
2022-11-12T04:58:50.419Z,4.50
2022-11-12T05:01:16.878Z,4.67
2022-11-12T05:03:43.372Z,4.75
2022-11-12T05:06:28.165Z,4.95
2022-11-12T05:08:54.759Z,5.13
2022-11-12T05:11:21.306Z,5.09
2022-11-12T05:13:47.707Z,5.32
2022-11-12T05:16:14.210Z,5.18
2022-11-12T05:18:40.606Z,5.34
2022-11-12T05:21:26.995Z,5.41
2022-11-12T05:23:53.382Z,5.58
2022-11-12T05:26:19.948Z,5.68
2022-11-12T05:28:46.409Z,5.72
2022-11-12T05:31:12.794Z,5.84
2022-11-12T05:33:39.180Z,5.89
2022-11-12T05:36:05.815Z,5.91
2022-11-12T05:38:32.213Z,5.96
2022-11-12T05:40:58.600Z,6.10
2022-11-12T05:43:25.081Z,6.12
2022-11-12T05:45:51.470Z,6.14
2022-11-12T05:48:24.035Z,6.11
2022-11-12T05:51:11.836Z,6.14
2022-11-12T05:53:38.371Z,6.26
2022-11-12T05:56:06.454Z,6.29
2022-11-12T05:58:33.437Z,6.25
2022-11-12T06:00:59.976Z,6.23
2022-11-12T06:03:26.829Z,6.36
2022-11-12T06:05:53.254Z,6.44
2022-11-12T06:08:19.677Z,6.35
2022-11-12T06:10:50.050Z,6.43
2022-11-12T06:13:16.481Z,6.47
2022-11-12T06:15:42.906Z,6.52
2022-11-12T06:18:09.848Z,6.53
2022-11-12T06:20:36.491Z,6.30
2022-11-12T06:23:03.444Z,6.19
2022-11-12T06:25:30.195Z,6.24
2022-11-12T06:27:56.592Z,6.09
2022-11-12T06:30:25.825Z,6.01
2022-11-12T06:32:52.822Z,6.00
2022-11-12T06:35:19.936Z,6.00
2022-11-12T06:37:47.625Z,5.95
2022-11-12T06:40:14.104Z,6.14
2022-11-12T06:42:40.773Z,5.88
2022-11-12T06:45:07.724Z,5.78
2022-11-12T06:47:34.170Z,5.70
2022-11-12T06:50:00.697Z,5.81
2022-11-12T06:52:27.101Z,5.75
2022-11-12T06:54:53.514Z,5.60
2022-11-12T06:57:19.876Z,5.51
2022-11-12T06:59:46.252Z,5.50
2022-11-12T07:02:13.665Z,5.51
2022-11-12T07:04:40.096Z,5.38
2022-11-12T07:07:10.443Z,5.49
2022-11-12T07:09:37.327Z,5.48
2022-11-12T07:12:03.917Z,5.57
2022-11-12T07:14:30.405Z,5.52
2022-11-12T07:16:56.813Z,5.33
2022-11-12T07:19:23.216Z,5.34
2022-11-12T07:21:49.596Z,5.39
2022-11-12T07:24:16.028Z,5.54
2022-11-12T07:26:47.275Z,5.61
2022-11-12T07:29:24.878Z,5.64
2022-11-12T07:32:00.575Z,5.65
2022-11-12T07:34:26.991Z,5.79
2022-11-12T07:36:53.471Z,5.85
2022-11-12T07:39:19.883Z,5.92
2022-11-12T07:41:46.267Z,5.99
2022-11-12T07:44:12.661Z,6.09
2022-11-12T07:46:39.084Z,6.17
2022-11-12T07:49:05.595Z,6.21
2022-11-12T07:51:31.977Z,6.26
2022-11-12T07:53:59.966Z,6.31
2022-11-12T07:56:27.720Z,6.38
2022-11-12T07:58:54.433Z,6.47
2022-11-12T08:01:31.994Z,6.39
2022-11-12T08:04:03.008Z,6.61
2022-11-12T08:06:31.038Z,6.61
2022-11-12T08:08:59.529Z,6.65
2022-11-12T08:11:26.011Z,6.67
2022-11-12T08:13:52.609Z,6.77
2022-11-12T08:16:19.262Z,6.73
2022-11-12T08:18:46.120Z,6.81
2022-11-12T08:21:14.748Z,6.72
2022-11-12T08:23:41.657Z,6.58
2022-11-12T08:26:11.965Z,6.67
2022-11-12T08:28:39.329Z,6.76
2022-11-12T08:31:11.600Z,6.71
2022-11-12T08:33:38.874Z,6.78
2022-11-12T08:36:07.583Z,6.76
2022-11-12T08:38:34.542Z,6.71
2022-11-12T08:41:02.391Z,6.88
2022-11-12T08:43:28.802Z,6.93
2022-11-12T08:45:58.399Z,7.01
2022-11-12T08:48:25.706Z,7.05
2022-11-12T08:50:52.974Z,6.91
2022-11-12T08:53:22.416Z,7.02
2022-11-12T08:55:49.461Z,7.25
2022-11-12T08:58:16.022Z,7.26
2022-11-12T09:00:44.138Z,7.22
2022-11-12T09:03:15.909Z,7.31
2022-11-12T09:05:42.944Z,7.37
2022-11-12T09:08:12.114Z,7.30
2022-11-12T09:10:39.580Z,7.34
2022-11-12T09:13:06.274Z,7.37
2022-11-12T09:15:38.011Z,7.48
2022-11-12T09:18:07.830Z,7.62
2022-11-12T09:20:34.549Z,7.65
2022-11-12T09:23:04.013Z,7.70
2022-11-12T09:25:30.823Z,7.77
2022-11-12T09:27:57.251Z,7.91
2022-11-12T09:30:23.973Z,8.01
2022-11-12T09:32:50.493Z,8.02
2022-11-12T09:35:17.049Z,8.13
2022-11-12T09:37:43.521Z,8.22
2022-11-12T09:40:18.111Z,8.23
2022-11-12T09:42:48.049Z,8.31
2022-11-12T09:45:26.122Z,8.39
2022-11-12T09:48:06.698Z,8.39
2022-11-12T09:51:04.874Z,8.45
2022-11-12T09:53:57.740Z,8.52
2022-11-12T09:56:26.111Z,8.58
2022-11-12T09:58:53.836Z,8.54
2022-11-12T10:01:32.202Z,8.59
2022-11-12T10:04:27.624Z,8.68
2022-11-12T10:07:06.396Z,8.68
2022-11-12T10:09:56.297Z,8.72
2022-11-12T10:12:46.857Z,8.79
2022-11-12T10:15:59.953Z,8.78
2022-11-12T10:19:07.666Z,8.82
2022-11-12T10:22:02.014Z,8.86
2022-11-12T10:24:34.661Z,8.86
2022-11-12T10:27:02.550Z,8.86
2022-11-12T10:29:40.362Z,8.95
2022-11-12T10:32:15.236Z,8.95
2022-11-12T10:34:41.712Z,8.95
2022-11-12T10:37:20.386Z,8.95
2022-11-12T10:39:47.646Z,8.98
2022-11-12T10:42:16.720Z,8.91
2022-11-12T10:44:43.839Z,9.07
2022-11-12T10:47:16.411Z,9.14
2022-11-12T10:49:42.821Z,9.19
2022-11-12T10:52:24.101Z,9.21
2022-11-12T10:55:05.163Z,9.27
2022-11-12T10:57:31.613Z,9.30
2022-11-12T11:00:20.079Z,9.34
2022-11-12T11:02:54.336Z,9.33
2022-11-12T11:05:50.104Z,9.35
2022-11-12T11:08:35.915Z,9.38
2022-11-12T11:11:28.489Z,9.39
2022-11-12T11:13:57.574Z,9.37
2022-11-12T11:16:26.888Z,9.43
2022-11-12T11:18:59.448Z,9.43
2022-11-12T11:21:42.072Z,9.45
2022-11-12T11:24:32.749Z,9.40
2022-11-12T11:27:17.464Z,9.39
2022-11-12T11:29:59.006Z,9.35
2022-11-12T11:32:49.835Z,9.43
2022-11-12T11:35:48.201Z,9.42
2022-11-12T11:38:59.260Z,9.39
2022-11-12T11:41:34.500Z,9.43
2022-11-12T11:44:15.870Z,9.48
2022-11-12T11:46:42.346Z,9.48
2022-11-12T11:49:27.283Z,9.46
2022-11-12T11:52:18.484Z,9.62
2022-11-12T11:55:21.599Z,9.63
2022-11-12T11:58:00.337Z,9.68
2022-11-12T12:00:37.041Z,9.65
2022-11-12T12:03:17.921Z,9.71
2022-11-12T12:06:18.352Z,9.44
2022-11-12T12:08:59.993Z,9.61
2022-11-12T12:11:35.659Z,9.65
2022-11-12T12:14:36.791Z,9.70
2022-11-12T12:17:36.101Z,9.71
2022-11-12T12:20:14.523Z,9.67
2022-11-12T12:22:47.143Z,9.74
2022-11-12T12:25:28.159Z,9.78
2022-11-12T12:28:10.209Z,9.72
2022-11-12T12:30:40.249Z,9.74
2022-11-12T12:33:25.255Z,9.75
2022-11-12T12:36:13.856Z,9.73
2022-11-12T12:38:48.229Z,9.74
2022-11-12T12:41:20.808Z,9.76
2022-11-12T12:43:52.732Z,9.75
2022-11-12T12:46:24.079Z,9.80
2022-11-12T12:48:54.002Z,9.87
2022-11-12T12:51:21.732Z,9.89
2022-11-12T12:53:48.266Z,9.91
2022-11-12T12:56:14.660Z,9.91
2022-11-12T12:58:46.976Z,9.98
2022-11-12T13:01:22.522Z,9.94
2022-11-12T13:03:59.233Z,9.91
2022-11-12T13:06:29.169Z,9.91
2022-11-12T13:09:24.463Z,9.90
2022-11-12T13:12:05.427Z,9.87
2022-11-12T13:14:34.847Z,9.86
2022-11-12T13:17:07.150Z,9.86
2022-11-12T13:19:35.964Z,9.98
2022-11-12T13:22:17.941Z,9.94
2022-11-12T13:25:20.198Z,9.92
2022-11-12T13:27:47.051Z,9.93
2022-11-12T13:30:13.457Z,9.88
2022-11-12T13:32:49.723Z,9.89
2022-11-12T13:35:21.779Z,9.92
2022-11-12T13:38:00.841Z,9.89
2022-11-12T13:40:30.275Z,9.92
2022-11-12T13:43:18.592Z,9.98
2022-11-12T13:45:50.216Z,10.01
2022-11-12T13:48:40.810Z,10.06
2022-11-12T13:51:32.098Z,10.01
2022-11-12T13:53:58.961Z,10.05
2022-11-12T13:56:31.694Z,10.04
2022-11-12T13:59:18.388Z,10.00
2022-11-12T14:01:47.308Z,9.96
2022-11-12T14:04:16.663Z,9.94
2022-11-12T14:06:51.799Z,9.82
2022-11-12T14:09:36.969Z,9.72
2022-11-12T14:12:29.659Z,9.69
2022-11-12T14:15:15.083Z,9.59
2022-11-12T14:17:47.600Z,9.59
2022-11-12T14:20:39.671Z,9.57
2022-11-12T14:23:12.442Z,9.53
2022-11-12T14:25:50.656Z,9.49
2022-11-12T14:28:37.190Z,9.48
2022-11-12T14:31:04.893Z,9.43
2022-11-12T14:33:32.605Z,9.41
2022-11-12T14:36:05.244Z,9.40
2022-11-12T14:38:39.951Z,9.38
2022-11-12T14:41:15.874Z,9.33
2022-11-12T14:43:50.156Z,9.32
2022-11-12T14:46:23.495Z,9.31
2022-11-12T14:48:58.112Z,9.43
2022-11-12T14:51:29.475Z,9.41
2022-11-12T14:54:26.184Z,9.35
2022-11-12T14:56:53.057Z,9.30
2022-11-12T14:59:19.740Z,9.24
2022-11-12T15:02:48.916Z,9.21
2022-11-12T15:05:21.048Z,9.14
2022-11-12T15:07:51.901Z,9.08
2022-11-12T15:10:38.130Z,8.98
2022-11-12T15:13:15.380Z,8.86
2022-11-12T15:15:55.109Z,8.79
2022-11-12T15:18:27.444Z,8.73
2022-11-12T15:21:12.087Z,8.62
2022-11-12T15:24:04.795Z,8.52
2022-11-12T15:26:35.917Z,8.48
2022-11-12T15:29:36.124Z,8.38
2022-11-12T15:32:13.506Z,8.24
2022-11-12T15:34:40.785Z,8.19
2022-11-12T15:37:19.539Z,8.09
2022-11-12T15:39:52.816Z,7.99
2022-11-12T15:42:30.133Z,7.88
2022-11-12T15:45:09.650Z,7.84
2022-11-12T15:47:36.150Z,7.76
2022-11-12T15:50:15.337Z,7.66
2022-11-12T15:52:42.071Z,7.62
2022-11-12T15:55:09.417Z,7.52
2022-11-12T15:57:40.875Z,7.47
2022-11-12T16:00:15.471Z,7.41
2022-11-12T16:02:42.560Z,7.36
2022-11-12T16:05:16.731Z,7.30
2022-11-12T16:07:43.234Z,7.28
2022-11-12T16:10:17.334Z,7.23
2022-11-12T16:12:45.376Z,7.14
2022-11-12T16:15:20.716Z,7.06
2022-11-12T16:17:47.970Z,7.01
2022-11-12T16:20:31.127Z,6.92
2022-11-12T16:22:57.989Z,6.86
2022-11-12T16:25:29.750Z,6.85
2022-11-12T16:27:57.720Z,6.83
2022-11-12T16:30:30.198Z,6.79
2022-11-12T16:32:57.949Z,6.73
2022-11-12T16:35:25.597Z,6.64
2022-11-12T16:37:54.331Z,6.60
2022-11-12T16:40:27.222Z,6.59
2022-11-12T16:42:53.707Z,6.61
2022-11-12T16:45:23.783Z,6.57
2022-11-12T16:47:55.190Z,6.52
2022-11-12T16:50:24.847Z,6.46
2022-11-12T16:52:52.716Z,6.46
2022-11-12T16:55:20.318Z,6.42
2022-11-12T16:57:46.980Z,6.39
2022-11-12T17:00:16.104Z,6.33
2022-11-12T17:02:47.138Z,6.17
2022-11-12T17:05:21.234Z,6.23
2022-11-12T17:07:48.490Z,6.23
2022-11-12T17:10:16.305Z,6.21
2022-11-12T17:12:43.483Z,6.19
2022-11-12T17:15:10.281Z,6.05
2022-11-12T17:17:36.746Z,5.93
2022-11-12T17:20:03.543Z,6.01
2022-11-12T17:22:31.121Z,6.01
2022-11-12T17:24:57.601Z,6.08
2022-11-12T17:27:24.028Z,6.02
2022-11-12T17:29:50.493Z,6.08
2022-11-12T17:32:16.991Z,6.02
2022-11-12T17:34:43.498Z,6.01
2022-11-12T17:37:09.960Z,5.97
2022-11-12T17:39:36.382Z,5.97
2022-11-12T17:42:02.925Z,5.94
2022-11-12T17:44:29.438Z,5.89
2022-11-12T17:46:56.044Z,5.87
2022-11-12T17:49:22.525Z,5.81
2022-11-12T17:51:48.999Z,5.74
2022-11-12T17:54:15.456Z,5.73
2022-11-12T17:56:41.905Z,5.75
2022-11-12T17:59:08.997Z,5.74
2022-11-12T18:01:35.496Z,5.78
2022-11-12T18:04:02.012Z,5.73
2022-11-12T18:06:31.536Z,5.71
2022-11-12T18:09:04.718Z,5.68
2022-11-12T18:11:41.629Z,5.66
2022-11-12T18:14:08.869Z,5.64
2022-11-12T18:16:35.528Z,5.56
2022-11-12T18:19:02.178Z,5.53
2022-11-12T18:21:28.658Z,5.52
2022-11-12T18:23:55.047Z,5.48
2022-11-12T18:26:21.784Z,5.46
2022-11-12T18:28:52.711Z,5.45
2022-11-12T18:31:19.698Z,5.37
2022-11-12T18:33:46.104Z,5.38
2022-11-12T18:36:18.352Z,5.33
2022-11-12T18:38:46.803Z,5.23
2022-11-12T18:41:15.467Z,5.23
2022-11-12T18:43:41.936Z,5.27
2022-11-12T18:46:10.056Z,5.30
2022-11-12T18:48:37.863Z,5.30
2022-11-12T18:51:10.535Z,5.27
2022-11-12T18:53:38.453Z,5.22
2022-11-12T18:56:14.211Z,5.18
2022-11-12T18:58:41.129Z,5.15
2022-11-12T19:01:11.053Z,5.13
2022-11-12T19:03:37.745Z,5.09
2022-11-12T19:06:06.305Z,4.95
2022-11-12T19:08:33.638Z,4.89
2022-11-12T19:11:02.124Z,4.86
2022-11-12T19:13:29.587Z,4.86
2022-11-12T19:16:03.667Z,4.90
2022-11-12T19:18:30.518Z,4.88
2022-11-12T19:21:05.865Z,4.85
2022-11-12T19:23:33.164Z,4.75
2022-11-12T19:26:00.870Z,4.77
2022-11-12T19:28:27.736Z,4.77
2022-11-12T19:30:54.642Z,4.80
2022-11-12T19:33:21.260Z,4.82
2022-11-12T19:35:47.921Z,4.80
2022-11-12T19:38:15.278Z,4.84
2022-11-12T19:40:42.585Z,4.70
2022-11-12T19:43:09.081Z,4.74
2022-11-12T19:45:35.600Z,4.75
2022-11-12T19:48:02.931Z,4.77
2022-11-12T19:50:30.674Z,4.71
2022-11-12T19:52:57.371Z,4.74
2022-11-12T19:55:25.656Z,4.78
2022-11-12T19:57:52.091Z,4.79
2022-11-12T20:00:18.691Z,4.76
2022-11-12T20:02:45.156Z,4.76
2022-11-12T20:05:11.802Z,4.72
2022-11-12T20:07:38.374Z,4.73
2022-11-12T20:10:05.291Z,4.62
2022-11-12T20:12:32.945Z,4.49
2022-11-12T20:14:59.413Z,4.51
2022-11-12T20:17:25.878Z,4.62
2022-11-12T20:19:52.440Z,4.67
2022-11-12T20:22:18.869Z,4.70
2022-11-12T20:24:45.385Z,4.72
2022-11-12T20:27:11.870Z,4.77
2022-11-12T20:29:38.404Z,4.81
2022-11-12T20:32:05.364Z,4.70
2022-11-12T20:34:31.815Z,4.76
2022-11-12T20:36:58.228Z,4.74
2022-11-12T20:39:24.669Z,4.71
2022-11-12T20:41:51.212Z,4.72
2022-11-12T20:44:17.728Z,4.74
2022-11-12T20:46:44.154Z,4.75
2022-11-12T20:49:10.589Z,4.81
2022-11-12T20:51:37.065Z,4.91
2022-11-12T20:54:03.861Z,4.99
2022-11-12T20:56:30.835Z,5.04
2022-11-12T20:58:59.028Z,5.05
2022-11-12T21:01:27.498Z,5.04
2022-11-12T21:03:54.740Z,5.00
2022-11-12T21:06:23.845Z,4.98
2022-11-12T21:08:50.731Z,5.05
2022-11-12T21:11:19.591Z,5.06
2022-11-12T21:13:46.162Z,5.04
2022-11-12T21:16:14.052Z,5.05
2022-11-12T21:18:41.026Z,4.97
2022-11-12T21:21:10.544Z,4.99
2022-11-12T21:23:39.950Z,4.92
2022-11-12T21:26:17.813Z,4.89
2022-11-12T21:28:55.176Z,4.93
2022-11-12T21:31:26.206Z,4.86
2022-11-12T21:33:54.888Z,4.90
2022-11-12T21:36:22.547Z,4.91
2022-11-12T21:38:49.190Z,4.86
2022-11-12T21:41:18.967Z,4.85
2022-11-12T21:43:45.811Z,4.83
2022-11-12T21:46:17.954Z,4.89
2022-11-12T21:48:45.288Z,4.88
2022-11-12T21:51:16.652Z,4.99
2022-11-12T21:53:44.701Z,5.01
2022-11-12T21:56:13.981Z,5.02
2022-11-12T21:58:40.604Z,5.14
2022-11-12T22:01:16.563Z,5.21
2022-11-12T22:03:44.415Z,5.25
2022-11-12T22:06:11.331Z,5.30
2022-11-12T22:08:38.269Z,5.34
2022-11-12T22:11:10.442Z,5.40
2022-11-12T22:13:37.711Z,5.40
2022-11-12T22:16:15.712Z,5.46
2022-11-12T22:18:43.814Z,5.32
2022-11-12T22:21:13.435Z,5.43
2022-11-12T22:23:40.216Z,5.44
2022-11-12T22:26:12.425Z,5.36
2022-11-12T22:28:39.160Z,5.45
2022-11-12T22:31:12.044Z,5.47
2022-11-12T22:33:39.241Z,5.52
2022-11-12T22:36:08.885Z,5.52
2022-11-12T22:38:41.992Z,5.44
2022-11-12T22:41:11.086Z,5.44
2022-11-12T22:43:38.051Z,5.40
2022-11-12T22:46:10.824Z,5.41
2022-11-12T22:48:37.995Z,5.43
2022-11-12T22:51:07.478Z,5.44
2022-11-12T22:53:34.692Z,5.42
2022-11-12T22:56:03.070Z,5.34
2022-11-12T22:58:30.163Z,5.35
2022-11-12T23:00:57.140Z,5.39
2022-11-12T23:03:23.681Z,5.36
2022-11-12T23:05:56.821Z,5.41
2022-11-12T23:08:23.597Z,5.41
2022-11-12T23:10:50.103Z,5.42
2022-11-12T23:13:16.571Z,5.47
2022-11-12T23:15:44.519Z,5.51
2022-11-12T23:18:11.241Z,5.53
2022-11-12T23:20:37.997Z,5.54
2022-11-12T23:23:04.438Z,5.55
2022-11-12T23:25:33.734Z,5.55
2022-11-12T23:28:00.146Z,5.53
2022-11-12T23:30:26.606Z,5.53
2022-11-12T23:32:53.108Z,5.57
2022-11-12T23:35:19.661Z,5.56
2022-11-12T23:37:46.088Z,5.57
2022-11-12T23:40:12.523Z,5.56
2022-11-12T23:42:38.934Z,5.54
2022-11-12T23:45:05.942Z,5.55
2022-11-12T23:47:32.461Z,5.57
2022-11-12T23:49:58.847Z,5.56
2022-11-12T23:52:25.342Z,5.53
2022-11-12T23:54:51.743Z,5.59
2022-11-12T23:57:18.210Z,5.61
2022-11-12T23:59:44.788Z,5.60
